sensor_id;sensor_type;location;lat;lon;timestamp;P1;durP1;ratioP1;P2;durP2;ratioP2
13807;SDS011;40769;51.512;5.494;2022-09-30T00:01:39;3.85;;;3.53;;
13807;SDS011;40769;51.512;5.494;2022-09-30T00:04:09;4.40;;;4.00;;
13807;SDS011;40769;51.512;5.494;2022-09-30T00:06:38;4.32;;;3.95;;
13807;SDS011;40769;51.512;5.494;2022-09-30T00:09:04;4.38;;;3.95;;
13807;SDS011;40769;51.512;5.494;2022-09-30T00:11:31;4.35;;;3.95;;
13807;SDS011;40769;51.512;5.494;2022-09-30T00:13:59;4.20;;;3.80;;
13807;SDS011;40769;51.512;5.494;2022-09-30T00:16:27;4.40;;;3.50;;
13807;SDS011;40769;51.512;5.494;2022-09-30T00:18:55;4.78;;;4.38;;
13807;SDS011;40769;51.512;5.494;2022-09-30T00:21:22;4.22;;;3.90;;
13807;SDS011;40769;51.512;5.494;2022-09-30T00:23:49;4.95;;;4.13;;
13807;SDS011;40769;51.512;5.494;2022-09-30T00:26:16;4.80;;;4.30;;
13807;SDS011;40769;51.512;5.494;2022-09-30T00:28:44;4.20;;;3.80;;
13807;SDS011;40769;51.512;5.494;2022-09-30T00:31:13;4.03;;;3.72;;
13807;SDS011;40769;51.512;5.494;2022-09-30T00:33:41;4.00;;;3.60;;
13807;SDS011;40769;51.512;5.494;2022-09-30T00:36:07;3.55;;;3.25;;
13807;SDS011;40769;51.512;5.494;2022-09-30T00:38:33;3.47;;;3.17;;
13807;SDS011;40769;51.512;5.494;2022-09-30T00:41:00;3.67;;;3.38;;
13807;SDS011;40769;51.512;5.494;2022-09-30T00:43:41;4.55;;;4.10;;
13807;SDS011;40769;51.512;5.494;2022-09-30T00:46:15;4.82;;;4.43;;
13807;SDS011;40769;51.512;5.494;2022-09-30T00:48:53;3.80;;;3.50;;
13807;SDS011;40769;51.512;5.494;2022-09-30T00:51:23;3.50;;;3.20;;
13807;SDS011;40769;51.512;5.494;2022-09-30T00:53:56;3.65;;;3.35;;
13807;SDS011;40769;51.512;5.494;2022-09-30T00:56:24;3.80;;;3.40;;
13807;SDS011;40769;51.512;5.494;2022-09-30T01:01:57;2.80;;;2.60;;
13807;SDS011;40769;51.512;5.494;2022-09-30T01:04:23;2.85;;;2.65;;
13807;SDS011;40769;51.512;5.494;2022-09-30T01:06:50;3.53;;;3.22;;
13807;SDS011;40769;51.512;5.494;2022-09-30T01:09:16;3.55;;;3.10;;
13807;SDS011;40769;51.512;5.494;2022-09-30T01:11:43;3.60;;;3.30;;
13807;SDS011;40769;51.512;5.494;2022-09-30T01:14:13;3.85;;;3.42;;
13807;SDS011;40769;51.512;5.494;2022-09-30T01:17:04;4.40;;;4.05;;
13807;SDS011;40769;51.512;5.494;2022-09-30T01:30:08;3.60;;;3.30;;
13807;SDS011;40769;51.512;5.494;2022-09-30T01:35:26;4.10;;;3.80;;
13807;SDS011;40769;51.512;5.494;2022-09-30T01:38:11;3.22;;;2.92;;
13807;SDS011;40769;51.512;5.494;2022-09-30T01:43:34;3.83;;;3.53;;
13807;SDS011;40769;51.512;5.494;2022-09-30T01:48:56;4.25;;;3.90;;
13807;SDS011;40769;51.512;5.494;2022-09-30T01:51:36;4.90;;;4.50;;
13807;SDS011;40769;51.512;5.494;2022-09-30T01:54:04;3.15;;;2.90;;
13807;SDS011;40769;51.512;5.494;2022-09-30T01:56:45;3.40;;;3.10;;
13807;SDS011;40769;51.512;5.494;2022-09-30T02:01:56;3.65;;;3.35;;
13807;SDS011;40769;51.512;5.494;2022-09-30T02:04:35;2.90;;;2.70;;
13807;SDS011;40769;51.512;5.494;2022-09-30T02:07:07;3.78;;;3.20;;
13807;SDS011;40769;51.512;5.494;2022-09-30T02:09:40;3.20;;;2.90;;
13807;SDS011;40769;51.512;5.494;2022-09-30T02:12:14;3.22;;;2.92;;
13807;SDS011;40769;51.512;5.494;2022-09-30T02:14:43;3.72;;;3.42;;
13807;SDS011;40769;51.512;5.494;2022-09-30T02:17:25;3.65;;;3.35;;
13807;SDS011;40769;51.512;5.494;2022-09-30T02:22:30;3.85;;;3.53;;
13807;SDS011;40769;51.512;5.494;2022-09-30T02:25:04;5.85;;;4.88;;
13807;SDS011;40769;51.512;5.494;2022-09-30T02:27:36;5.47;;;4.95;;
13807;SDS011;40769;51.512;5.494;2022-09-30T02:30:06;6.00;;;5.50;;
13807;SDS011;40769;51.512;5.494;2022-09-30T02:32:34;5.05;;;4.55;;
13807;SDS011;40769;51.512;5.494;2022-09-30T02:35:07;6.20;;;5.60;;
13807;SDS011;40769;51.512;5.494;2022-09-30T02:37:51;4.40;;;4.03;;
13807;SDS011;40769;51.512;5.494;2022-09-30T02:43:30;3.53;;;3.22;;
13807;SDS011;40769;51.512;5.494;2022-09-30T02:48:45;4.18;;;3.88;;
13807;SDS011;40769;51.512;5.494;2022-09-30T02:51:44;3.95;;;3.53;;
13807;SDS011;40769;51.512;5.494;2022-09-30T02:54:30;3.58;;;3.28;;
13807;SDS011;40769;51.512;5.494;2022-09-30T02:59:45;4.50;;;4.10;;
13807;SDS011;40769;51.512;5.494;2022-09-30T03:02:15;4.05;;;3.75;;
13807;SDS011;40769;51.512;5.494;2022-09-30T03:04:41;4.25;;;3.85;;
13807;SDS011;40769;51.512;5.494;2022-09-30T03:07:09;3.10;;;2.90;;
13807;SDS011;40769;51.512;5.494;2022-09-30T03:09:35;2.83;;;2.63;;
13807;SDS011;40769;51.512;5.494;2022-09-30T03:12:07;2.85;;;2.63;;
13807;SDS011;40769;51.512;5.494;2022-09-30T03:14:37;2.50;;;2.30;;
13807;SDS011;40769;51.512;5.494;2022-09-30T03:22:38;2.67;;;2.47;;
13807;SDS011;40769;51.512;5.494;2022-09-30T03:30:47;4.40;;;4.07;;
13807;SDS011;40769;51.512;5.494;2022-09-30T03:33:20;4.47;;;4.07;;
13807;SDS011;40769;51.512;5.494;2022-09-30T03:38:33;3.70;;;3.40;;
13807;SDS011;40769;51.512;5.494;2022-09-30T03:46:33;3.20;;;2.92;;
13807;SDS011;40769;51.512;5.494;2022-09-30T03:49:00;2.88;;;2.67;;
13807;SDS011;40769;51.512;5.494;2022-09-30T03:51:30;3.08;;;2.88;;
13807;SDS011;40769;51.512;5.494;2022-09-30T03:53:57;3.33;;;3.03;;
13807;SDS011;40769;51.512;5.494;2022-09-30T03:56:24;3.13;;;2.83;;
13807;SDS011;40769;51.512;5.494;2022-09-30T03:58:50;5.32;;;4.82;;
13807;SDS011;40769;51.512;5.494;2022-09-30T04:01:17;5.47;;;4.97;;
13807;SDS011;40769;51.512;5.494;2022-09-30T04:03:45;5.50;;;5.00;;
13807;SDS011;40769;51.512;5.494;2022-09-30T04:06:16;3.67;;;3.22;;
13807;SDS011;40769;51.512;5.494;2022-09-30T04:08:43;3.45;;;3.15;;
13807;SDS011;40769;51.512;5.494;2022-09-30T04:11:11;3.33;;;3.03;;
13807;SDS011;40769;51.512;5.494;2022-09-30T04:13:37;3.70;;;3.40;;
13807;SDS011;40769;51.512;5.494;2022-09-30T04:16:04;3.40;;;3.10;;
13807;SDS011;40769;51.512;5.494;2022-09-30T04:18:32;5.22;;;4.82;;
13807;SDS011;40769;51.512;5.494;2022-09-30T04:21:00;5.75;;;5.25;;
13807;SDS011;40769;51.512;5.494;2022-09-30T04:23:29;5.57;;;5.07;;
13807;SDS011;40769;51.512;5.494;2022-09-30T04:25:57;4.07;;;3.67;;
13807;SDS011;40769;51.512;5.494;2022-09-30T04:28:23;3.65;;;3.35;;
13807;SDS011;40769;51.512;5.494;2022-09-30T04:30:48;5.40;;;4.40;;
13807;SDS011;40769;51.512;5.494;2022-09-30T04:33:14;4.72;;;4.22;;
13807;SDS011;40769;51.512;5.494;2022-09-30T04:35:40;4.32;;;3.92;;
13807;SDS011;40769;51.512;5.494;2022-09-30T04:38:05;4.85;;;4.28;;
13807;SDS011;40769;51.512;5.494;2022-09-30T04:40:31;5.88;;;5.35;;
13807;SDS011;40769;51.512;5.494;2022-09-30T04:43:01;6.68;;;6.07;;
13807;SDS011;40769;51.512;5.494;2022-09-30T04:45:26;6.55;;;5.85;;
13807;SDS011;40769;51.512;5.494;2022-09-30T04:47:52;4.90;;;4.50;;
13807;SDS011;40769;51.512;5.494;2022-09-30T04:50:17;4.07;;;3.78;;
13807;SDS011;40769;51.512;5.494;2022-09-30T04:52:43;4.32;;;3.92;;
13807;SDS011;40769;51.512;5.494;2022-09-30T04:55:09;4.47;;;4.07;;
13807;SDS011;40769;51.512;5.494;2022-09-30T04:57:35;4.90;;;4.40;;
13807;SDS011;40769;51.512;5.494;2022-09-30T05:00:02;6.35;;;5.68;;
13807;SDS011;40769;51.512;5.494;2022-09-30T05:02:29;7.13;;;6.43;;
13807;SDS011;40769;51.512;5.494;2022-09-30T05:04:55;6.82;;;6.22;;
13807;SDS011;40769;51.512;5.494;2022-09-30T05:07:21;6.82;;;6.13;;
13807;SDS011;40769;51.512;5.494;2022-09-30T05:09:46;5.57;;;5.05;;
13807;SDS011;40769;51.512;5.494;2022-09-30T05:12:12;4.68;;;4.25;;
13807;SDS011;40769;51.512;5.494;2022-09-30T05:14:39;4.20;;;3.80;;
13807;SDS011;40769;51.512;5.494;2022-09-30T05:17:05;4.00;;;3.60;;
13807;SDS011;40769;51.512;5.494;2022-09-30T05:19:31;4.00;;;3.70;;
13807;SDS011;40769;51.512;5.494;2022-09-30T05:21:56;3.80;;;3.50;;
13807;SDS011;40769;51.512;5.494;2022-09-30T05:24:25;5.55;;;5.05;;
13807;SDS011;40769;51.512;5.494;2022-09-30T05:26:51;6.32;;;5.68;;
13807;SDS011;40769;51.512;5.494;2022-09-30T05:29:16;5.55;;;5.05;;
13807;SDS011;40769;51.512;5.494;2022-09-30T05:31:42;7.28;;;6.22;;
13807;SDS011;40769;51.512;5.494;2022-09-30T05:34:08;4.47;;;4.07;;
13807;SDS011;40769;51.512;5.494;2022-09-30T05:36:34;4.10;;;3.70;;
13807;SDS011;40769;51.512;5.494;2022-09-30T05:39:00;4.13;;;3.65;;
13807;SDS011;40769;51.512;5.494;2022-09-30T05:41:25;8.35;;;4.00;;
13807;SDS011;40769;51.512;5.494;2022-09-30T05:43:51;7.43;;;3.75;;
13807;SDS011;40769;51.512;5.494;2022-09-30T05:46:17;9.05;;;4.00;;
13807;SDS011;40769;51.512;5.494;2022-09-30T05:48:43;5.18;;;3.60;;
13807;SDS011;40769;51.512;5.494;2022-09-30T05:51:09;3.72;;;3.42;;
13807;SDS011;40769;51.512;5.494;2022-09-30T05:53:38;4.90;;;4.00;;
13807;SDS011;40769;51.512;5.494;2022-09-30T05:56:05;3.88;;;3.58;;
13807;SDS011;40769;51.512;5.494;2022-09-30T05:58:31;3.60;;;3.30;;
13807;SDS011;40769;51.512;5.494;2022-09-30T06:01:02;4.22;;;3.83;;
13807;SDS011;40769;51.512;5.494;2022-09-30T06:03:32;4.03;;;3.72;;
13807;SDS011;40769;51.512;5.494;2022-09-30T06:05:58;4.18;;;3.78;;
13807;SDS011;40769;51.512;5.494;2022-09-30T06:08:25;4.32;;;3.92;;
13807;SDS011;40769;51.512;5.494;2022-09-30T06:10:50;6.40;;;5.82;;
13807;SDS011;40769;51.512;5.494;2022-09-30T06:13:16;6.85;;;6.25;;
13807;SDS011;40769;51.512;5.494;2022-09-30T06:15:43;6.40;;;5.85;;
13807;SDS011;40769;51.512;5.494;2022-09-30T06:18:08;4.72;;;4.15;;
13807;SDS011;40769;51.512;5.494;2022-09-30T06:20:36;4.35;;;3.95;;
13807;SDS011;40769;51.512;5.494;2022-09-30T06:23:02;4.45;;;4.13;;
13807;SDS011;40769;51.512;5.494;2022-09-30T06:25:28;6.05;;;4.30;;
13807;SDS011;40769;51.512;5.494;2022-09-30T06:27:55;5.20;;;4.38;;
13807;SDS011;40769;51.512;5.494;2022-09-30T06:30:21;4.95;;;4.55;;
13807;SDS011;40769;51.512;5.494;2022-09-30T06:32:47;4.50;;;4.10;;
13807;SDS011;40769;51.512;5.494;2022-09-30T06:35:13;5.18;;;4.68;;
13807;SDS011;40769;51.512;5.494;2022-09-30T06:37:38;5.75;;;5.25;;
13807;SDS011;40769;51.512;5.494;2022-09-30T06:40:06;6.63;;;6.03;;
13807;SDS011;40769;51.512;5.494;2022-09-30T06:42:32;6.70;;;6.20;;
13807;SDS011;40769;51.512;5.494;2022-09-30T06:44:58;7.30;;;6.70;;
13807;SDS011;40769;51.512;5.494;2022-09-30T06:47:23;9.05;;;8.25;;
13807;SDS011;40769;51.512;5.494;2022-09-30T06:49:49;10.65;;;9.68;;
13807;SDS011;40769;51.512;5.494;2022-09-30T06:52:17;12.73;;;11.40;;
13807;SDS011;40769;51.512;5.494;2022-09-30T06:54:44;8.55;;;7.85;;
13807;SDS011;40769;51.512;5.494;2022-09-30T06:57:11;7.55;;;6.90;;
13807;SDS011;40769;51.512;5.494;2022-09-30T06:59:37;8.25;;;7.50;;
13807;SDS011;40769;51.512;5.494;2022-09-30T07:02:02;7.18;;;6.57;;
13807;SDS011;40769;51.512;5.494;2022-09-30T07:04:28;7.40;;;6.80;;
13807;SDS011;40769;51.512;5.494;2022-09-30T07:06:54;7.32;;;6.68;;
13807;SDS011;40769;51.512;5.494;2022-09-30T07:09:20;7.40;;;6.80;;
13807;SDS011;40769;51.512;5.494;2022-09-30T07:11:45;7.03;;;6.43;;
13807;SDS011;40769;51.512;5.494;2022-09-30T07:14:12;8.82;;;8.13;;
13807;SDS011;40769;51.512;5.494;2022-09-30T07:16:38;7.57;;;6.97;;
13807;SDS011;40769;51.512;5.494;2022-09-30T07:19:04;7.40;;;6.82;;
13807;SDS011;40769;51.512;5.494;2022-09-30T07:21:31;8.10;;;7.43;;
13807;SDS011;40769;51.512;5.494;2022-09-30T07:23:57;7.10;;;6.55;;
13807;SDS011;40769;51.512;5.494;2022-09-30T07:26:24;7.55;;;6.95;;
13807;SDS011;40769;51.512;5.494;2022-09-30T07:28:51;9.27;;;8.48;;
13807;SDS011;40769;51.512;5.494;2022-09-30T07:31:22;8.55;;;7.90;;
13807;SDS011;40769;51.512;5.494;2022-09-30T07:33:49;8.52;;;7.82;;
13807;SDS011;40769;51.512;5.494;2022-09-30T07:36:16;8.65;;;7.95;;
13807;SDS011;40769;51.512;5.494;2022-09-30T07:38:51;8.75;;;8.05;;
13807;SDS011;40769;51.512;5.494;2022-09-30T07:41:20;9.55;;;8.80;;
13807;SDS011;40769;51.512;5.494;2022-09-30T07:43:50;7.80;;;7.20;;
13807;SDS011;40769;51.512;5.494;2022-09-30T07:46:28;8.32;;;7.72;;
13807;SDS011;40769;51.512;5.494;2022-09-30T07:48:57;8.98;;;8.07;;
13807;SDS011;40769;51.512;5.494;2022-09-30T07:51:30;10.73;;;9.80;;
13807;SDS011;40769;51.512;5.494;2022-09-30T07:53:59;11.85;;;10.88;;
13807;SDS011;40769;51.512;5.494;2022-09-30T07:56:27;12.85;;;11.90;;
13807;SDS011;40769;51.512;5.494;2022-09-30T07:58:54;10.50;;;9.65;;
13807;SDS011;40769;51.512;5.494;2022-09-30T08:01:21;9.38;;;8.57;;
13807;SDS011;40769;51.512;5.494;2022-09-30T08:03:51;10.80;;;10.00;;
13807;SDS011;40769;51.512;5.494;2022-09-30T08:06:18;11.65;;;10.75;;
13807;SDS011;40769;51.512;5.494;2022-09-30T08:08:44;11.95;;;10.98;;
13807;SDS011;40769;51.512;5.494;2022-09-30T08:11:11;9.75;;;8.95;;
13807;SDS011;40769;51.512;5.494;2022-09-30T08:13:38;9.88;;;9.07;;
13807;SDS011;40769;51.512;5.494;2022-09-30T08:16:05;12.68;;;11.68;;
13807;SDS011;40769;51.512;5.494;2022-09-30T08:18:30;8.70;;;8.00;;
13807;SDS011;40769;51.512;5.494;2022-09-30T08:21:01;7.95;;;7.35;;
13807;SDS011;40769;51.512;5.494;2022-09-30T08:23:30;10.48;;;9.57;;
13807;SDS011;40769;51.512;5.494;2022-09-30T08:26:03;9.70;;;8.90;;
13807;SDS011;40769;51.512;5.494;2022-09-30T08:28:31;10.25;;;9.38;;
13807;SDS011;40769;51.512;5.494;2022-09-30T08:33:36;11.13;;;10.23;;
13807;SDS011;40769;51.512;5.494;2022-09-30T08:36:24;10.23;;;9.43;;
13807;SDS011;40769;51.512;5.494;2022-09-30T08:38:49;10.57;;;9.70;;
13807;SDS011;40769;51.512;5.494;2022-09-30T08:41:18;9.60;;;8.85;;
13807;SDS011;40769;51.512;5.494;2022-09-30T08:47:29;12.25;;;11.25;;
13807;SDS011;40769;51.512;5.494;2022-09-30T08:52:56;9.90;;;9.10;;
13807;SDS011;40769;51.512;5.494;2022-09-30T08:55:32;11.90;;;10.80;;
13807;SDS011;40769;51.512;5.494;2022-09-30T08:58:03;13.30;;;12.15;;
13807;SDS011;40769;51.512;5.494;2022-09-30T09:00:31;10.93;;;10.00;;
13807;SDS011;40769;51.512;5.494;2022-09-30T09:02:58;11.52;;;10.55;;
13807;SDS011;40769;51.512;5.494;2022-09-30T09:11:27;12.57;;;11.20;;
13807;SDS011;40769;51.512;5.494;2022-09-30T09:14:09;13.32;;;12.18;;
13807;SDS011;40769;51.512;5.494;2022-09-30T09:17:02;12.05;;;11.05;;
13807;SDS011;40769;51.512;5.494;2022-09-30T09:19:55;11.52;;;10.52;;
13807;SDS011;40769;51.512;5.494;2022-09-30T09:22:32;8.32;;;7.53;;
13807;SDS011;40769;51.512;5.494;2022-09-30T09:24:59;12.60;;;11.57;;
13807;SDS011;40769;51.512;5.494;2022-09-30T09:30:19;10.27;;;9.48;;
13807;SDS011;40769;51.512;5.494;2022-09-30T09:32:48;11.55;;;10.57;;
13807;SDS011;40769;51.512;5.494;2022-09-30T09:38:23;11.40;;;10.45;;
13807;SDS011;40769;51.512;5.494;2022-09-30T09:43:59;9.95;;;9.05;;
13807;SDS011;40769;51.512;5.494;2022-09-30T09:46:32;8.15;;;7.45;;
13807;SDS011;40769;51.512;5.494;2022-09-30T09:54:47;7.70;;;7.10;;
13807;SDS011;40769;51.512;5.494;2022-09-30T09:57:16;8.85;;;7.90;;
13807;SDS011;40769;51.512;5.494;2022-09-30T09:59:59;7.45;;;6.85;;
13807;SDS011;40769;51.512;5.494;2022-09-30T10:03:03;7.82;;;7.18;;
13807;SDS011;40769;51.512;5.494;2022-09-30T10:05:33;7.25;;;6.65;;
13807;SDS011;40769;51.512;5.494;2022-09-30T10:08:07;7.63;;;7.00;;
13807;SDS011;40769;51.512;5.494;2022-09-30T10:10:41;6.43;;;5.93;;
13807;SDS011;40769;51.512;5.494;2022-09-30T10:13:14;6.03;;;5.63;;
13807;SDS011;40769;51.512;5.494;2022-09-30T10:15:44;7.15;;;6.55;;
13807;SDS011;40769;51.512;5.494;2022-09-30T10:18:18;7.55;;;6.95;;
13807;SDS011;40769;51.512;5.494;2022-09-30T10:20:54;5.68;;;5.28;;
13807;SDS011;40769;51.512;5.494;2022-09-30T10:23:24;6.43;;;5.93;;
13807;SDS011;40769;51.512;5.494;2022-09-30T10:25:58;6.95;;;6.45;;
13807;SDS011;40769;51.512;5.494;2022-09-30T10:28:26;6.78;;;6.28;;
13807;SDS011;40769;51.512;5.494;2022-09-30T10:30:54;6.35;;;5.90;;
13807;SDS011;40769;51.512;5.494;2022-09-30T10:33:24;6.05;;;5.55;;
13807;SDS011;40769;51.512;5.494;2022-09-30T10:38:25;4.70;;;4.35;;
13807;SDS011;40769;51.512;5.494;2022-09-30T10:40:53;4.75;;;4.40;;
13807;SDS011;40769;51.512;5.494;2022-09-30T10:45:58;4.13;;;3.83;;
13807;SDS011;40769;51.512;5.494;2022-09-30T10:48:28;4.28;;;3.97;;
13807;SDS011;40769;51.512;5.494;2022-09-30T10:50:58;3.80;;;3.50;;
13807;SDS011;40769;51.512;5.494;2022-09-30T10:53:28;3.95;;;3.65;;
13807;SDS011;40769;51.512;5.494;2022-09-30T10:55:57;3.60;;;3.30;;
13807;SDS011;40769;51.512;5.494;2022-09-30T11:03:33;3.72;;;3.40;;
13807;SDS011;40769;51.512;5.494;2022-09-30T11:06:04;3.13;;;2.92;;
13807;SDS011;40769;51.512;5.494;2022-09-30T11:11:10;2.70;;;2.50;;
13807;SDS011;40769;51.512;5.494;2022-09-30T11:13:43;2.10;;;1.90;;
13807;SDS011;40769;51.512;5.494;2022-09-30T11:16:34;2.28;;;2.08;;
13807;SDS011;40769;51.512;5.494;2022-09-30T11:19:32;2.30;;;2.05;;
13807;SDS011;40769;51.512;5.494;2022-09-30T11:25:01;1.60;;;1.50;;
13807;SDS011;40769;51.512;5.494;2022-09-30T11:30:18;1.85;;;1.75;;
13807;SDS011;40769;51.512;5.494;2022-09-30T11:32:55;1.67;;;1.50;;
13807;SDS011;40769;51.512;5.494;2022-09-30T11:35:50;1.48;;;1.38;;
13807;SDS011;40769;51.512;5.494;2022-09-30T11:41:29;1.33;;;1.23;;
13807;SDS011;40769;51.512;5.494;2022-09-30T11:44:07;1.50;;;1.27;;
13807;SDS011;40769;51.512;5.494;2022-09-30T11:50:09;2.40;;;1.65;;
13807;SDS011;40769;51.512;5.494;2022-09-30T11:52:42;1.98;;;1.52;;
13807;SDS011;40769;51.512;5.494;2022-09-30T11:58:19;1.23;;;1.13;;
13807;SDS011;40769;51.512;5.494;2022-09-30T12:00:55;1.48;;;1.38;;
13807;SDS011;40769;51.512;5.494;2022-09-30T12:03:34;1.85;;;1.52;;
13807;SDS011;40769;51.512;5.494;2022-09-30T12:06:10;1.40;;;1.27;;
13807;SDS011;40769;51.512;5.494;2022-09-30T12:08:49;1.48;;;1.38;;
13807;SDS011;40769;51.512;5.494;2022-09-30T12:11:43;1.77;;;1.45;;
13807;SDS011;40769;51.512;5.494;2022-09-30T12:14:34;1.40;;;1.30;;
13807;SDS011;40769;51.512;5.494;2022-09-30T12:17:08;1.70;;;1.60;;
13807;SDS011;40769;51.512;5.494;2022-09-30T12:19:44;1.70;;;1.60;;
13807;SDS011;40769;51.512;5.494;2022-09-30T12:22:24;1.40;;;1.30;;
13807;SDS011;40769;51.512;5.494;2022-09-30T12:24:54;1.27;;;1.17;;
13807;SDS011;40769;51.512;5.494;2022-09-30T12:27:31;3.67;;;1.40;;
13807;SDS011;40769;51.512;5.494;2022-09-30T12:30:13;2.25;;;1.50;;
13807;SDS011;40769;51.512;5.494;2022-09-30T12:49:14;2.00;;;1.58;;
13807;SDS011;40769;51.512;5.494;2022-09-30T12:51:44;2.33;;;1.60;;
13807;SDS011;40769;51.512;5.494;2022-09-30T12:54:15;3.30;;;1.80;;
13807;SDS011;40769;51.512;5.494;2022-09-30T12:56:46;2.08;;;1.40;;
13807;SDS011;40769;51.512;5.494;2022-09-30T12:59:17;1.63;;;1.17;;
13807;SDS011;40769;51.512;5.494;2022-09-30T13:01:53;2.47;;;1.25;;
13807;SDS011;40769;51.512;5.494;2022-09-30T13:04:38;1.48;;;1.17;;
13807;SDS011;40769;51.512;5.494;2022-09-30T13:12:24;1.83;;;1.30;;
13807;SDS011;40769;51.512;5.494;2022-09-30T13:15:43;2.05;;;1.50;;
13807;SDS011;40769;51.512;5.494;2022-09-30T13:31:25;2.95;;;1.45;;
13807;SDS011;40769;51.512;5.494;2022-09-30T13:36:26;1.10;;;1.00;;
13807;SDS011;40769;51.512;5.494;2022-09-30T13:39:05;0.82;;;0.80;;
13807;SDS011;40769;51.512;5.494;2022-09-30T13:41:42;2.95;;;1.13;;
13807;SDS011;40769;51.512;5.494;2022-09-30T13:44:20;2.33;;;1.35;;
13807;SDS011;40769;51.512;5.494;2022-09-30T13:46:58;1.40;;;1.08;;
13807;SDS011;40769;51.512;5.494;2022-09-30T13:49:45;1.67;;;1.02;;
13807;SDS011;40769;51.512;5.494;2022-09-30T13:52:24;1.00;;;0.90;;
13807;SDS011;40769;51.512;5.494;2022-09-30T13:54:57;1.48;;;1.00;;
13807;SDS011;40769;51.512;5.494;2022-09-30T13:57:31;1.55;;;0.90;;
13807;SDS011;40769;51.512;5.494;2022-09-30T14:00:10;1.90;;;0.88;;
13807;SDS011;40769;51.512;5.494;2022-09-30T14:02:45;1.23;;;0.95;;
13807;SDS011;40769;51.512;5.494;2022-09-30T14:05:46;1.15;;;1.00;;
13807;SDS011;40769;51.512;5.494;2022-09-30T14:08:39;1.20;;;1.00;;
13807;SDS011;40769;51.512;5.494;2022-09-30T14:22:01;1.20;;;1.00;;
13807;SDS011;40769;51.512;5.494;2022-09-30T14:24:32;1.30;;;1.20;;
13807;SDS011;40769;51.512;5.494;2022-09-30T14:27:18;1.60;;;1.27;;
13807;SDS011;40769;51.512;5.494;2022-09-30T14:33:03;1.23;;;1.10;;
13807;SDS011;40769;51.512;5.494;2022-09-30T14:35:35;1.15;;;0.93;;
13807;SDS011;40769;51.512;5.494;2022-09-30T14:38:13;1.60;;;1.50;;
13807;SDS011;40769;51.512;5.494;2022-09-30T14:40:51;1.58;;;1.48;;
13807;SDS011;40769;51.512;5.494;2022-09-30T14:43:21;2.28;;;1.25;;
13807;SDS011;40769;51.512;5.494;2022-09-30T14:45:57;1.13;;;1.02;;
13807;SDS011;40769;51.512;5.494;2022-09-30T14:48:40;2.28;;;1.40;;
13807;SDS011;40769;51.512;5.494;2022-09-30T14:51:09;2.13;;;1.40;;
13807;SDS011;40769;51.512;5.494;2022-09-30T14:53:39;1.42;;;1.23;;
13807;SDS011;40769;51.512;5.494;2022-09-30T14:59:14;2.10;;;1.50;;
13807;SDS011;40769;51.512;5.494;2022-09-30T15:01:42;2.90;;;1.85;;
13807;SDS011;40769;51.512;5.494;2022-09-30T15:04:13;2.28;;;1.60;;
13807;SDS011;40769;51.512;5.494;2022-09-30T15:06:42;2.10;;;1.10;;
13807;SDS011;40769;51.512;5.494;2022-09-30T15:09:14;1.85;;;1.40;;
13807;SDS011;40769;51.512;5.494;2022-09-30T15:11:53;1.27;;;1.15;;
13807;SDS011;40769;51.512;5.494;2022-09-30T15:14:20;1.83;;;1.25;;
13807;SDS011;40769;51.512;5.494;2022-09-30T15:16:49;1.50;;;1.25;;
13807;SDS011;40769;51.512;5.494;2022-09-30T15:19:21;1.27;;;1.17;;
13807;SDS011;40769;51.512;5.494;2022-09-30T15:21:50;3.00;;;1.23;;
13807;SDS011;40769;51.512;5.494;2022-09-30T15:24:18;1.27;;;1.10;;
13807;SDS011;40769;51.512;5.494;2022-09-30T15:26:46;2.85;;;1.20;;
13807;SDS011;40769;51.512;5.494;2022-09-30T15:29:13;1.75;;;1.27;;
13807;SDS011;40769;51.512;5.494;2022-09-30T15:31:44;1.95;;;1.35;;
13807;SDS011;40769;51.512;5.494;2022-09-30T15:36:42;3.47;;;3.17;;
13807;SDS011;40769;51.512;5.494;2022-09-30T15:39:21;2.65;;;2.10;;
13807;SDS011;40769;51.512;5.494;2022-09-30T15:42:08;1.90;;;1.70;;
13807;SDS011;40769;51.512;5.494;2022-09-30T15:44:37;1.67;;;1.55;;
13807;SDS011;40769;51.512;5.494;2022-09-30T15:47:04;1.95;;;1.70;;
13807;SDS011;40769;51.512;5.494;2022-09-30T15:54:54;2.70;;;2.47;;
13807;SDS011;40769;51.512;5.494;2022-09-30T15:57:44;3.28;;;2.45;;
13807;SDS011;40769;51.512;5.494;2022-09-30T16:00:33;2.33;;;2.00;;
13807;SDS011;40769;51.512;5.494;2022-09-30T16:03:06;2.20;;;1.70;;
13807;SDS011;40769;51.512;5.494;2022-09-30T16:05:53;2.15;;;1.92;;
13807;SDS011;40769;51.512;5.494;2022-09-30T16:08:51;1.98;;;1.85;;
13807;SDS011;40769;51.512;5.494;2022-09-30T16:11:45;2.38;;;2.00;;
13807;SDS011;40769;51.512;5.494;2022-09-30T16:14:21;3.03;;;1.90;;
13807;SDS011;40769;51.512;5.494;2022-09-30T16:16:52;2.13;;;1.73;;
13807;SDS011;40769;51.512;5.494;2022-09-30T16:19:19;3.15;;;2.72;;
13807;SDS011;40769;51.512;5.494;2022-09-30T16:21:48;2.65;;;2.10;;
13807;SDS011;40769;51.512;5.494;2022-09-30T16:26:54;4.60;;;2.97;;
13807;SDS011;40769;51.512;5.494;2022-09-30T16:29:21;3.55;;;2.80;;
13807;SDS011;40769;51.512;5.494;2022-09-30T16:31:49;2.35;;;2.15;;
13807;SDS011;40769;51.512;5.494;2022-09-30T16:34:18;4.82;;;2.40;;
13807;SDS011;40769;51.512;5.494;2022-09-30T16:36:51;2.65;;;2.15;;
13807;SDS011;40769;51.512;5.494;2022-09-30T16:39:27;2.60;;;2.40;;
13807;SDS011;40769;51.512;5.494;2022-09-30T16:41:53;3.35;;;2.38;;
13807;SDS011;40769;51.512;5.494;2022-09-30T16:44:19;3.92;;;3.28;;
13807;SDS011;40769;51.512;5.494;2022-09-30T16:46:48;3.70;;;3.30;;
13807;SDS011;40769;51.512;5.494;2022-09-30T16:49:15;3.03;;;2.83;;
13807;SDS011;40769;51.512;5.494;2022-09-30T16:51:43;4.03;;;2.80;;
13807;SDS011;40769;51.512;5.494;2022-09-30T16:54:09;3.28;;;2.97;;
13807;SDS011;40769;51.512;5.494;2022-09-30T16:56:35;4.03;;;3.38;;
13807;SDS011;40769;51.512;5.494;2022-09-30T16:59:01;2.65;;;2.45;;
13807;SDS011;40769;51.512;5.494;2022-09-30T17:01:27;2.38;;;2.17;;
13807;SDS011;40769;51.512;5.494;2022-09-30T17:03:55;2.00;;;1.80;;
13807;SDS011;40769;51.512;5.494;2022-09-30T17:06:25;3.58;;;2.78;;
13807;SDS011;40769;51.512;5.494;2022-09-30T17:08:52;2.30;;;2.10;;
13807;SDS011;40769;51.512;5.494;2022-09-30T17:11:19;3.10;;;2.35;;
13807;SDS011;40769;51.512;5.494;2022-09-30T17:13:53;2.55;;;2.35;;
13807;SDS011;40769;51.512;5.494;2022-09-30T17:16:19;2.88;;;2.63;;
13807;SDS011;40769;51.512;5.494;2022-09-30T17:18:44;3.08;;;2.10;;
13807;SDS011;40769;51.512;5.494;2022-09-30T17:21:10;2.08;;;1.88;;
13807;SDS011;40769;51.512;5.494;2022-09-30T17:23:35;2.58;;;1.60;;
13807;SDS011;40769;51.512;5.494;2022-09-30T17:26:04;2.25;;;1.63;;
13807;SDS011;40769;51.512;5.494;2022-09-30T17:28:30;1.67;;;1.58;;
13807;SDS011;40769;51.512;5.494;2022-09-30T17:30:58;1.95;;;1.85;;
13807;SDS011;40769;51.512;5.494;2022-09-30T17:33:24;2.50;;;2.30;;
13807;SDS011;40769;51.512;5.494;2022-09-30T17:36:04;1.85;;;1.50;;
13807;SDS011;40769;51.512;5.494;2022-09-30T17:38:32;1.85;;;1.50;;
13807;SDS011;40769;51.512;5.494;2022-09-30T17:40:58;1.70;;;1.50;;
13807;SDS011;40769;51.512;5.494;2022-09-30T17:43:43;1.63;;;1.50;;
13807;SDS011;40769;51.512;5.494;2022-09-30T17:46:12;1.30;;;1.20;;
13807;SDS011;40769;51.512;5.494;2022-09-30T17:48:46;1.55;;;1.45;;
13807;SDS011;40769;51.512;5.494;2022-09-30T17:51:12;2.03;;;1.92;;
13807;SDS011;40769;51.512;5.494;2022-09-30T17:53:40;1.55;;;1.45;;
13807;SDS011;40769;51.512;5.494;2022-09-30T17:56:07;1.50;;;1.20;;
13807;SDS011;40769;51.512;5.494;2022-09-30T17:58:40;1.30;;;1.20;;
13807;SDS011;40769;51.512;5.494;2022-09-30T18:01:09;1.73;;;1.50;;
13807;SDS011;40769;51.512;5.494;2022-09-30T18:03:35;1.98;;;1.88;;
13807;SDS011;40769;51.512;5.494;2022-09-30T18:06:01;2.45;;;1.60;;
13807;SDS011;40769;51.512;5.494;2022-09-30T18:08:29;1.90;;;1.80;;